Time;durP1;ratioP1;P1;durP2;ratioP2;P2;SDS_P1;SDS_P2;PMS_P1;PMS_P2;Temp;Humidity;BMP_temperature;BMP_pressure;BME280_temperature;BME280_humidity;BME280_pressure;Samples;Min_cycle;Max_cycle;Signal;HPM_P1;HPM_P2
2021/11/05 00:00:35;;;;;;;3.97;2.35;;;;;;;15.85;nan;100840.25;5033430;28;20072;-42
2021/11/05 00:03:01;;;;;;;3.13;2.30;;;;;;;15.85;nan;100837.56;5032660;28;20080;-42
2021/11/05 00:05:31;;;;;;;3.60;2.28;;;;;;;15.85;nan;100837.56;5032949;28;20449;-42
2021/11/05 00:07:57;;;;;;;4.45;2.22;;;;;;;15.85;nan;100837.56;5031594;28;20398;-43
2021/11/05 00:10:23;;;;;;;3.47;2.67;;;;;;;15.85;nan;100834.88;5032724;28;20300;-42
2021/11/05 00:12:50;;;;;;;4.32;2.90;;;;;;;15.83;nan;100835.00;5032814;28;20374;-42
2021/11/05 00:15:17;;;;;;;3.67;2.28;;;;;;;15.83;nan;100835.00;5029518;28;20512;-42
2021/11/05 00:17:43;;;;;;;3.20;2.22;;;;;;;15.83;nan;100842.16;5032333;28;21916;-43
2021/11/05 00:20:10;;;;;;;3.97;2.38;;;;;;;15.81;nan;100831.53;5032885;28;20040;-43
2021/11/05 00:22:36;;;;;;;2.72;2.30;;;;;;;15.82;nan;100837.75;5032305;28;20449;-41
2021/11/05 00:25:06;;;;;;;3.97;2.65;;;;;;;15.81;nan;100839.56;5012877;28;20042;-42
2021/11/05 00:27:33;;;;;;;4.60;3.00;;;;;;;15.81;nan;100836.03;5013168;28;20034;-42
2021/11/05 00:29:58;;;;;;;4.28;2.80;;;;;;;15.79;nan;100845.97;5012921;28;20037;-40
2021/11/05 00:32:24;;;;;;;3.95;2.75;;;;;;;15.79;nan;100844.16;5040715;28;20144;-43
2021/11/05 00:34:49;;;;;;;4.78;2.60;;;;;;;15.79;nan;100835.25;5032510;28;20044;-42
2021/11/05 00:37:15;;;;;;;4.32;2.40;;;;;;;15.79;nan;100836.09;5030666;28;20064;-43
2021/11/05 00:39:40;;;;;;;3.67;2.53;;;;;;;15.78;nan;100834.38;5032510;28;20013;-43
2021/11/05 00:42:06;;;;;;;3.92;2.35;;;;;;;15.79;nan;100821.84;5031031;28;20064;-42
2021/11/05 00:44:31;;;;;;;4.20;2.40;;;;;;;15.77;nan;100826.44;5032212;28;20103;-42
2021/11/05 00:46:57;;;;;;;3.45;2.60;;;;;;;15.76;nan;100827.41;5032105;28;20056;-42
2021/11/05 00:49:22;;;;;;;4.00;2.22;;;;;;;15.76;nan;100827.41;5031929;28;20037;-41
2021/11/05 00:51:49;;;;;;;3.80;2.85;;;;;;;15.77;nan;100821.94;5031802;28;20040;-43
2021/11/05 00:54:15;;;;;;;3.60;2.30;;;;;;;15.75;nan;100826.53;5031813;28;20022;-44
2021/11/05 00:56:40;;;;;;;3.75;2.40;;;;;;;15.74;nan;100815.91;5032209;28;20025;-43
2021/11/05 00:59:06;;;;;;;2.92;2.10;;;;;;;15.75;nan;100826.53;5030229;28;20021;-42
2021/11/05 01:01:32;;;;;;;5.10;2.40;;;;;;;15.75;nan;100820.31;5032350;28;20040;-42
2021/11/05 01:03:57;;;;;;;3.95;2.42;;;;;;;15.75;nan;100825.66;5032787;28;20033;-44
2021/11/05 01:06:23;;;;;;;4.95;2.78;;;;;;;15.74;nan;100822.13;5033701;28;20030;-42
2021/11/05 01:08:48;;;;;;;4.57;2.80;;;;;;;15.73;nan;100823.09;5031834;28;20071;-41
2021/11/05 01:11:14;;;;;;;4.22;2.35;;;;;;;15.73;nan;100832.94;5031857;28;20040;-42
2021/11/05 01:13:39;;;;;;;3.90;2.28;;;;;;;15.72;nan;100828.53;5031468;28;20494;-41
2021/11/05 01:16:05;;;;;;;3.03;2.40;;;;;;;15.72;nan;100833.88;5031185;28;20079;-43
2021/11/05 01:18:31;;;;;;;4.28;2.50;;;;;;;15.72;nan;100833.88;5031518;28;20102;-43
2021/11/05 01:20:56;;;;;;;4.05;2.55;;;;;;;15.71;nan;100832.16;5031647;28;20037;-43
2021/11/05 01:23:22;;;;;;;3.38;2.55;;;;;;;15.69;nan;100834.94;5031005;28;20064;-43
2021/11/05 01:25:49;;;;;;;4.50;2.25;;;;;;;15.70;nan;100830.44;5031549;28;20028;-42
2021/11/05 01:28:15;;;;;;;4.88;2.45;;;;;;;15.68;nan;100835.91;5031173;28;20025;-42
2021/11/05 01:30:41;;;;;;;2.43;1.90;;;;;;;15.68;nan;100829.66;5026505;28;20394;-42
2021/11/05 01:33:07;;;;;;;5.57;2.67;;;;;;;15.67;nan;100825.25;5030898;28;20029;-43
2021/11/05 01:35:36;;;;;;;4.47;2.58;;;;;;;15.68;nan;100821.63;5031148;28;20033;-41
2021/11/05 01:38:02;;;;;;;3.17;2.50;;;;;;;15.69;nan;100826.06;5031063;28;20144;-42
2021/11/05 01:40:27;;;;;;;3.20;2.10;;;;;;;15.67;nan;100825.25;5031299;28;20029;-41
2021/11/05 01:42:53;;;;;;;3.40;2.30;;;;;;;15.67;nan;100825.25;5030871;28;20474;-43
2021/11/05 01:45:19;;;;;;;2.80;2.20;;;;;;;15.67;nan;100818.06;5031332;28;20466;-42
2021/11/05 01:47:45;;;;;;;4.55;2.33;;;;;;;15.66;nan;100820.88;5030854;28;20076;-44
2021/11/05 01:50:11;;;;;;;2.78;2.25;;;;;;;15.64;nan;100818.22;5031228;28;20549;-42
2021/11/05 01:52:41;;;;;;;2.87;2.23;;;;;;;15.66;nan;100812.81;5029977;28;20021;-44
2021/11/05 01:55:08;;;;;;;4.63;2.53;;;;;;;15.65;nan;100820.00;5031211;28;20057;-42
2021/11/05 01:57:34;;;;;;;4.90;2.53;;;;;;;15.65;nan;100813.75;5030912;28;20060;-42
2021/11/05 01:59:59;;;;;;;4.25;2.60;;;;;;;15.64;nan;100822.72;5029627;28;20029;-43
2021/11/05 02:02:25;;;;;;;3.25;2.15;;;;;;;15.62;nan;100813.94;5031303;28;20029;-43
2021/11/05 02:04:50;;;;;;;2.90;2.00;;;;;;;15.63;nan;100821.00;5031010;28;20405;-42
2021/11/05 02:07:16;;;;;;;2.25;2.05;;;;;;;15.63;nan;100823.69;5030919;28;20025;-43
2021/11/05 02:09:43;;;;;;;2.40;2.10;;;;;;;15.61;nan;100829.16;5030795;28;20481;-41
2021/11/05 02:12:09;;;;;;;2.20;2.00;;;;;;;15.60;nan;100822.03;5031113;28;20108;-42
2021/11/05 02:14:35;;;;;;;3.63;2.05;;;;;;;15.60;nan;100822.91;5030916;28;20032;-43
2021/11/05 02:17:03;;;;;;;2.97;2.23;;;;;;;15.60;nan;100822.03;5030512;28;20036;-43
2021/11/05 02:19:31;;;;;;;3.30;2.03;;;;;;;15.59;nan;100821.19;5029331;28;20474;-43
2021/11/05 02:21:58;;;;;;;2.28;1.90;;;;;;;15.60;nan;100817.53;5031874;28;20482;-42
2021/11/05 02:24:26;;;;;;;3.13;2.22;;;;;;;15.59;nan;100815.81;5031106;28;20029;-43
2021/11/05 02:26:52;;;;;;;4.55;2.03;;;;;;;15.58;nan;100807.88;5031246;28;20357;-42
2021/11/05 02:29:18;;;;;;;2.80;2.00;;;;;;;15.58;nan;100819.47;5034510;28;20497;-42
2021/11/05 02:31:44;;;;;;;2.93;1.93;;;;;;;15.58;nan;100811.44;5034986;28;20072;-43
2021/11/05 02:34:10;;;;;;;4.10;1.95;;;;;;;15.57;nan;100809.72;5033233;28;20270;-42
2021/11/05 02:36:36;;;;;;;3.47;1.88;;;;;;;15.58;nan;100807.88;5034982;28;20026;-43
2021/11/05 02:39:07;;;;;;;2.43;1.90;;;;;;;15.56;nan;100804.44;5034700;28;20071;-43
2021/11/05 02:41:41;;;;;;;3.17;1.90;;;;;;;15.56;nan;100805.28;5033272;28;20068;-43
2021/11/05 02:44:07;;;;;;;3.58;1.90;;;;;;;15.56;nan;100815.13;5034817;28;20026;-42
2021/11/05 02:46:33;;;;;;;2.60;1.87;;;;;;;15.55;nan;100811.59;5034601;28;20028;-42
2021/11/05 02:49:05;;;;;;;2.70;1.93;;;;;;;15.55;nan;100814.28;5034073;28;20514;-41
2021/11/05 02:51:32;;;;;;;3.35;1.92;;;;;;;15.56;nan;100816.00;5034348;28;20271;-42
2021/11/05 02:53:58;;;;;;;3.67;1.90;;;;;;;15.55;nan;100818.78;5034168;28;20116;-42
2021/11/05 02:56:24;;;;;;;3.03;1.90;;;;;;;15.54;nan;100823.28;5034286;28;20465;-42
2021/11/05 02:58:50;;;;;;;2.97;1.70;;;;;;;15.53;nan;100824.25;5034355;28;20026;-43
2021/11/05 03:01:17;;;;;;;3.70;2.28;;;;;;;15.53;nan;100821.56;5033913;28;20041;-41
2021/11/05 03:03:43;;;;;;;3.35;2.10;;;;;;;15.52;nan;100814.47;5034164;28;20029;-43
2021/11/05 03:06:09;;;;;;;2.33;1.63;;;;;;;15.52;nan;100821.63;5034183;28;20027;-42
2021/11/05 03:08:34;;;;;;;3.63;2.15;;;;;;;15.51;nan;100823.47;5034105;28;20026;-42
2021/11/05 03:11:01;;;;;;;4.55;2.10;;;;;;;15.52;nan;100821.63;5032788;28;20097;-42
2021/11/05 03:13:27;;;;;;;3.83;2.30;;;;;;;15.49;nan;100825.38;5033727;28;20041;-42
2021/11/05 03:15:52;;;;;;;2.00;1.60;;;;;;;15.50;nan;100829.78;5032648;28;20029;-42
2021/11/05 03:18:18;;;;;;;3.15;2.05;;;;;;;15.50;nan;100827.09;5034178;28;20025;-44
2021/11/05 03:20:45;;;;;;;3.15;1.90;;;;;;;15.50;nan;100828.91;5032100;28;20026;-43
2021/11/05 03:23:14;;;;;;;2.78;1.98;;;;;;;15.49;nan;100827.16;5033901;28;20033;-41
2021/11/05 03:25:41;;;;;;;3.88;2.03;;;;;;;15.50;nan;100831.59;5033400;28;20056;-43
2021/11/05 03:28:08;;;;;;;3.83;2.53;;;;;;;15.48;nan;100829.00;5033885;28;20022;-42
2021/11/05 03:30:34;;;;;;;2.20;1.80;;;;;;;15.46;nan;100830.91;5034185;28;20044;-42
2021/11/05 03:33:00;;;;;;;2.05;1.85;;;;;;;15.48;nan;100833.50;5033809;28;20136;-42
2021/11/05 03:35:25;;;;;;;2.00;1.58;;;;;;;15.47;nan;100827.28;5032099;28;20056;-42
2021/11/05 03:37:51;;;;;;;3.95;1.70;;;;;;;15.46;nan;100825.56;5033333;28;20037;-42
2021/11/05 03:40:19;;;;;;;3.08;2.05;;;;;;;15.46;nan;100833.59;5031704;28;20167;-42
2021/11/05 03:42:49;;;;;;;2.35;1.63;;;;;;;15.45;nan;100829.16;5033417;28;20036;-42
2021/11/05 03:45:19;;;;;;;3.05;2.00;;;;;;;15.45;nan;100830.97;5033240;28;20061;-43
2021/11/05 03:47:44;;;;;;;2.47;1.60;;;;;;;15.44;nan;100827.44;5033096;28;20401;-42
2021/11/05 03:50:10;;;;;;;2.88;1.80;;;;;;;15.43;nan;100830.22;5032164;28;20030;-42
2021/11/05 03:52:37;;;;;;;3.42;1.77;;;;;;;15.43;nan;100831.09;5032324;28;20032;-42
2021/11/05 03:55:03;;;;;;;4.07;2.20;;;;;;;15.43;nan;100831.09;5031977;28;20042;-42
2021/11/05 03:57:29;;;;;;;2.40;1.75;;;;;;;15.43;nan;100827.56;5031768;28;20033;-42
2021/11/05 03:59:54;;;;;;;4.15;2.08;;;;;;;15.41;nan;100843.69;5031953;28;20259;-42
2021/11/05 04:02:20;;;;;;;2.30;1.67;;;;;;;15.41;nan;100846.38;5033166;28;20466;-42
2021/11/05 04:04:46;;;;;;;3.55;1.83;;;;;;;15.42;nan;100849.94;5033101;28;20028;-41
2021/11/05 04:07:11;;;;;;;3.53;1.80;;;;;;;15.40;nan;100844.66;5032748;28;20052;-43
2021/11/05 04:09:37;;;;;;;2.85;1.80;;;;;;;15.40;nan;100844.66;5032916;28;20018;-42
2021/11/05 04:12:03;;;;;;;3.42;2.45;;;;;;;15.40;nan;100846.47;5031304;28;20032;-43
2021/11/05 04:14:28;;;;;;;3.50;1.75;;;;;;;15.38;nan;100843.91;5033010;28;20060;-42
2021/11/05 04:16:54;;;;;;;2.78;1.80;;;;;;;15.39;nan;100844.75;5032785;28;20017;-41
2021/11/05 04:19:19;;;;;;;2.30;1.83;;;;;;;15.38;nan;100853.72;5032725;28;20444;-41
2021/11/05 04:21:45;;;;;;;2.60;1.70;;;;;;;15.37;nan;100855.53;5032796;28;20032;-41
2021/11/05 04:24:10;;;;;;;3.60;2.10;;;;;;;15.37;nan;100847.50;5032952;28;20029;-42
2021/11/05 04:26:37;;;;;;;3.22;1.77;;;;;;;15.37;nan;100850.19;5032476;28;20494;-42
2021/11/05 04:29:04;;;;;;;3.97;2.00;;;;;;;15.36;nan;100845.78;5030369;28;20026;-44
2021/11/05 04:31:30;;;;;;;2.50;1.80;;;;;;;15.36;nan;100853.81;5032532;28;20021;-43
2021/11/05 04:33:55;;;;;;;4.18;2.10;;;;;;;15.34;nan;100853.91;5032672;28;20022;-41
2021/11/05 04:36:22;;;;;;;3.35;1.83;;;;;;;15.35;nan;100860.13;5032356;28;20112;-41
2021/11/05 04:38:49;;;;;;;2.88;1.80;;;;;;;15.34;nan;100861.09;5032024;28;20021;-42
2021/11/05 04:41:15;;;;;;;3.67;1.80;;;;;;;15.32;nan;100860.31;5032409;28;20163;-41
2021/11/05 04:43:41;;;;;;;3.67;1.55;;;;;;;15.33;nan;100862.88;5032100;28;20112;-43
2021/11/05 04:46:07;;;;;;;2.00;1.70;;;;;;;15.32;nan;100865.66;5031173;28;20021;-44
2021/11/05 04:48:33;;;;;;;3.58;1.88;;;;;;;15.33;nan;100862.03;5060900;22;20053;-36
2021/11/05 04:50:58;;;;;;;4.45;1.77;;;;;;;15.32;nan;100863.00;5051324;28;20096;-37
2021/11/05 04:53:24;;;;;;;3.65;2.05;;;;;;;15.31;nan;100864.81;5052248;28;20033;-37
2021/11/05 04:55:49;;;;;;;2.40;1.75;;;;;;;15.29;nan;100868.50;5052418;28;20039;-36
2021/11/05 04:58:15;;;;;;;2.42;1.70;;;;;;;15.30;nan;100864.88;5052153;28;20125;-36
2021/11/05 05:00:41;;;;;;;3.40;1.83;;;;;;;15.29;nan;100863.16;5050656;28;20025;-37
2021/11/05 05:03:07;;;;;;;2.65;1.70;;;;;;;15.30;nan;100864.88;5032381;28;20113;-37
2021/11/05 05:05:33;;;;;;;3.35;1.80;;;;;;;15.28;nan;100861.44;5032238;28;20029;-37
2021/11/05 05:07:59;;;;;;;3.60;1.67;;;;;;;15.28;nan;100861.44;5031921;28;20037;-37
2021/11/05 05:10:25;;;;;;;1.70;1.60;;;;;;;15.27;nan;100867.75;5033121;28;20095;-37
2021/11/05 05:12:52;;;;;;;5.18;2.08;;;;;;;15.27;nan;100862.41;5031973;28;20022;-37
2021/11/05 05:15:17;;;;;;;2.87;1.80;;;;;;;15.27;nan;100867.75;5046705;28;20033;-37
2021/11/05 05:17:43;;;;;;;2.55;1.92;;;;;;;15.25;nan;100878.53;5052105;28;20598;-37
2021/11/05 05:20:11;;;;;;;3.70;1.65;;;;;;;15.26;nan;100877.59;5050676;28;20025;-37
2021/11/05 05:22:38;;;;;;;4.03;1.58;;;;;;;15.26;nan;100874.03;5031789;28;20031;-37
2021/11/05 05:25:05;;;;;;;2.75;1.58;;;;;;;15.25;nan;100864.28;5032507;28;20036;-37
2021/11/05 05:27:30;;;;;;;;;;;;;;;15.25;nan;100862.47;5034823;28;20040;-37
2021/11/05 05:29:57;;;;;;;2.93;1.70;;;;;;;15.24;nan;100862.56;5031855;28;19909;-37
2021/11/05 05:32:22;;;;;;;2.42;1.77;;;;;;;15.24;nan;100862.56;5032986;28;20033;-37
2021/11/05 05:34:49;;;;;;;4.00;2.00;;;;;;;15.24;nan;100867.91;5031907;28;20022;-37
2021/11/05 05:37:15;;;;;;;3.45;1.77;;;;;;;15.22;nan;100864.44;5032923;28;20561;-37
2021/11/05 05:39:42;;;;;;;3.42;1.80;;;;;;;15.23;nan;100876.91;5031447;28;20025;-37
2021/11/05 05:42:07;;;;;;;2.88;2.00;;;;;;;15.22;nan;100875.16;5032831;28;20162;-37
2021/11/05 05:44:34;;;;;;;2.55;1.80;;;;;;;15.22;nan;100875.16;5031594;28;20108;-37
2021/11/05 05:47:00;;;;;;;4.95;2.10;;;;;;;15.20;nan;100872.59;5045956;28;20028;-37
2021/11/05 05:49:26;;;;;;;2.83;1.87;;;;;;;15.20;nan;100883.28;5051276;28;20107;-37
2021/11/05 05:51:52;;;;;;;2.38;2.10;;;;;;;15.20;nan;100877.09;5051363;28;20273;-37
2021/11/05 05:54:17;;;;;;;2.80;1.90;;;;;;;15.20;nan;100885.13;5036511;28;20022;-37
2021/11/05 05:56:43;;;;;;;2.13;1.88;;;;;;;15.18;nan;100879.84;5031558;28;20022;-37
2021/11/05 05:59:08;;;;;;;1.98;1.80;;;;;;;15.18;nan;100878.97;5031254;28;20394;-37
2021/11/05 06:01:35;;;;;;;2.10;1.90;;;;;;;15.18;nan;100869.13;5031824;28;20032;-37
2021/11/05 06:04:01;;;;;;;2.38;1.80;;;;;;;15.17;nan;100871.91;5038974;28;20022;-37
2021/11/05 06:06:30;;;;;;;4.23;2.00;;;;;;;15.17;nan;100879.94;5038009;28;20466;-37
2021/11/05 06:08:56;;;;;;;5.10;1.85;;;;;;;15.16;nan;100879.06;5037749;28;20024;-37
2021/11/05 06:11:21;;;;;;;4.47;2.08;;;;;;;15.15;nan;100879.13;5043492;28;20025;-37
2021/11/05 06:13:47;;;;;;;3.53;2.17;;;;;;;15.16;nan;100880.88;5057052;28;20370;-37
2021/11/05 06:16:13;;;;;;;2.95;1.80;;;;;;;15.16;nan;100883.56;5057927;28;20123;-37
2021/11/05 06:18:39;;;;;;;2.92;1.83;;;;;;;15.14;nan;100888.13;5057691;28;20096;-37
2021/11/05 06:21:04;;;;;;;3.75;2.10;;;;;;;15.13;nan;100889.94;5053170;28;20413;-37
2021/11/05 06:23:30;;;;;;;2.70;1.75;;;;;;;15.14;nan;100888.13;5057555;28;20032;-36
2021/11/05 06:25:56;;;;;;;3.78;2.00;;;;;;;15.13;nan;100895.31;5057907;28;20104;-37
2021/11/05 06:28:22;;;;;;;2.38;1.70;;;;;;;15.11;nan;100891.88;5058012;28;20461;-37
2021/11/05 06:30:48;;;;;;;3.58;1.92;;;;;;;15.12;nan;100882.88;5040494;28;20039;-37
2021/11/05 06:33:13;;;;;;;2.15;1.67;;;;;;;15.12;nan;100896.25;5057793;28;20448;-37
2021/11/05 06:35:39;;;;;;;2.58;1.88;;;;;;;15.12;nan;100896.25;5057600;28;20465;-37
2021/11/05 06:38:04;;;;;;;4.00;2.10;;;;;;;15.10;nan;100896.31;5051859;28;20052;-37
2021/11/05 06:40:30;;;;;;;3.17;1.88;;;;;;;15.11;nan;100898.06;5043887;28;20071;-37
2021/11/05 06:42:55;;;;;;;2.58;1.50;;;;;;;15.09;nan;100902.63;5046727;28;20631;-38
2021/11/05 06:45:21;;;;;;;2.60;1.67;;;;;;;15.09;nan;100899.09;5037783;28;20033;-38
2021/11/05 06:47:47;;;;;;;3.75;2.08;;;;;;;15.08;nan;100900.91;5038858;28;20472;-38
2021/11/05 06:50:12;;;;;;;3.22;2.17;;;;;;;15.09;nan;100909.81;5040692;28;20045;-38
2021/11/05 06:52:38;;;;;;;3.47;1.98;;;;;;;15.07;nan;100909.91;5048085;28;20033;-38
2021/11/05 06:55:06;;;;;;;2.50;1.77;;;;;;;15.06;nan;100913.50;5037665;28;20029;-37
2021/11/05 06:57:32;;;;;;;2.97;1.80;;;;;;;15.07;nan;100909.03;5037018;28;20022;-37
2021/11/05 06:59:58;;;;;;;3.20;1.90;;;;;;;15.07;nan;100911.69;5040779;28;20499;-37
2021/11/05 07:02:24;;;;;;;3.42;2.05;;;;;;;15.07;nan;100919.72;5055490;28;20036;-37
2021/11/05 07:04:50;;;;;;;4.30;1.80;;;;;;;15.06;nan;100915.34;5037504;28;20096;-37
2021/11/05 07:07:16;;;;;;;2.42;1.73;;;;;;;15.06;nan;100929.56;5037483;28;20117;-37
2021/11/05 07:09:41;;;;;;;2.30;1.77;;;;;;;15.05;nan;100925.19;5037362;28;20033;-37
2021/11/05 07:12:07;;;;;;;3.47;1.88;;;;;;;15.06;nan;100931.41;5020742;28;20039;-37
2021/11/05 07:14:34;;;;;;;3.30;1.60;;;;;;;15.04;nan;100939.53;5034170;28;20071;-37
2021/11/05 07:17:00;;;;;;;;;;;;;;;15.04;nan;100934.16;5034751;28;20025;-37
2021/11/05 07:19:26;;;;;;;3.50;1.90;;;;;;;15.04;nan;100942.19;5048845;28;20339;-37
2021/11/05 07:21:59;;;;;;;2.30;1.70;;;;;;;15.05;nan;100948.41;5034863;28;20382;-37
2021/11/05 07:24:27;;;;;;;2.40;1.70;;;;;;;15.04;nan;100952.06;5054243;28;20032;-37
2021/11/05 07:26:53;;;;;;;;;;;;;;;15.05;nan;100953.78;5036351;28;20029;-38
2021/11/05 07:29:23;;;;;;;2.75;1.92;;;;;;;15.04;nan;100958.28;5046284;28;19917;-37
2021/11/05 07:31:49;;;;;;;2.70;1.85;;;;;;;15.04;nan;100958.28;5037514;28;20102;-38
2021/11/05 07:34:16;;;;;;;2.40;1.70;;;;;;;15.05;nan;100970.69;5049496;28;20028;-37
2021/11/05 07:36:41;;;;;;;2.15;1.45;;;;;;;15.06;nan;100971.56;5067373;28;20730;-37
2021/11/05 07:39:07;;;;;;;2.65;1.50;;;;;;;15.08;nan;100961.63;5055468;28;20039;-37
2021/11/05 07:41:34;;;;;;;2.80;1.80;;;;;;;15.07;nan;100963.47;5048287;28;20037;-37
2021/11/05 07:44:00;;;;;;;3.90;1.80;;;;;;;15.08;nan;100975.03;5053388;28;20032;-37
2021/11/05 07:46:28;;;;;;;2.77;1.83;;;;;;;15.11;nan;100977.53;5037171;28;20041;-37
2021/11/05 07:48:53;;;;;;;2.03;1.48;;;;;;;15.11;nan;100975.72;5015269;28;20529;-37
2021/11/05 07:51:19;;;;;;;2.35;1.65;;;;;;;15.14;nan;100977.34;5047060;28;20056;-37
2021/11/05 07:53:45;;;;;;;2.25;1.92;;;;;;;15.15;nan;100986.25;5051202;28;20405;-38
2021/11/05 07:56:11;;;;;;;2.13;1.48;;;;;;;15.16;nan;100982.63;5051697;28;20025;-38
2021/11/05 07:58:36;;;;;;;2.88;1.98;;;;;;;15.18;nan;100986.09;5053239;28;20021;-38
2021/11/05 08:01:02;;;;;;;2.47;1.90;;;;;;;15.17;nan;100979.88;5047061;28;20374;-37
2021/11/05 08:03:28;;;;;;;4.90;1.92;;;;;;;15.19;nan;100987.84;5043237;28;20020;-37
2021/11/05 08:05:53;;;;;;;2.42;1.83;;;;;;;15.20;nan;100993.09;5051325;28;20051;-37
2021/11/05 08:08:19;;;;;;;1.90;1.52;;;;;;;15.22;nan;100998.34;5015538;28;20028;-37
2021/11/05 08:10:45;;;;;;;4.03;1.63;;;;;;;15.22;nan;100998.34;5037138;28;20036;-37
2021/11/05 08:13:11;;;;;;;1.90;1.70;;;;;;;15.24;nan;100999.16;5050290;28;20481;-37
2021/11/05 08:15:37;;;;;;;2.73;1.90;;;;;;;15.25;nan;101004.41;5058507;28;20500;-37
2021/11/05 08:18:02;;;;;;;2.60;1.83;;;;;;;15.24;nan;101007.19;5052391;28;20025;-37
2021/11/05 08:20:28;;;;;;;2.40;1.65;;;;;;;15.26;nan;101000.81;5050217;28;20036;-37
2021/11/05 08:22:53;;;;;;;2.55;1.60;;;;;;;15.27;nan;101002.53;5044660;28;20021;-37
2021/11/05 08:25:20;;;;;;;2.78;1.60;;;;;;;15.29;nan;101010.47;5038623;28;20028;-37
2021/11/05 08:27:47;;;;;;;3.20;1.52;;;;;;;15.30;nan;101012.19;5048275;28;20373;-37
2021/11/05 08:30:17;;;;;;;2.83;1.73;;;;;;;15.31;nan;101011.25;5032673;28;20044;-37
2021/11/05 08:32:44;;;;;;;3.60;1.70;;;;;;;15.33;nan;101017.38;5072700;28;20025;-37
2021/11/05 08:35:10;;;;;;;2.80;1.55;;;;;;;15.34;nan;101024.50;5057895;28;20028;-37
2021/11/05 08:37:36;;;;;;;2.72;1.83;;;;;;;15.35;nan;101015.50;5052549;28;20057;-37
2021/11/05 08:40:03;;;;;;;1.65;1.55;;;;;;;15.38;nan;101012.66;5052189;28;20133;-37
2021/11/05 08:42:29;;;;;;;3.85;1.90;;;;;;;15.39;nan;101011.69;5026752;28;20025;-37
2021/11/05 08:44:55;;;;;;;2.42;1.80;;;;;;;15.43;nan;101015.06;5044832;28;20025;-37
2021/11/05 08:47:21;;;;;;;2.45;1.73;;;;;;;15.44;nan;101012.28;5034659;28;20021;-37
2021/11/05 08:49:52;;;;;;;2.67;1.65;;;;;;;15.45;nan;101022.06;5033380;28;20052;-36
2021/11/05 08:52:18;;;;;;;2.83;1.83;;;;;;;15.47;nan;101014.81;5032551;28;20108;-37
2021/11/05 08:54:43;;;;;;;2.72;1.67;;;;;;;15.48;nan;101027.25;5031289;28;20039;-36
2021/11/05 08:57:09;;;;;;;2.78;1.50;;;;;;;15.50;nan;101019.13;5035536;28;20029;-37
2021/11/05 08:59:35;;;;;;;2.92;1.60;;;;;;;15.50;nan;101020.00;5049527;28;20033;-36
2021/11/05 09:02:01;;;;;;;3.53;1.88;;;;;;;15.53;nan;101021.63;5040199;28;20025;-37
2021/11/05 09:04:27;;;;;;;3.00;1.77;;;;;;;15.54;nan;101026.91;5064135;28;20025;-37
2021/11/05 09:06:52;;;;;;;3.95;1.70;;;;;;;15.54;nan;101015.34;5057418;28;20477;-37
2021/11/05 09:09:20;;;;;;;2.10;1.67;;;;;;;15.55;nan;101012.56;5050688;28;20047;-37
2021/11/05 09:11:50;;;;;;;1.70;1.60;;;;;;;15.57;nan;101025.88;5033214;28;20028;-37
2021/11/05 09:14:17;;;;;;;2.17;1.55;;;;;;;15.57;nan;101026.75;5051680;28;20044;-37
2021/11/05 09:16:43;;;;;;;2.00;1.65;;;;;;;15.58;nan;101028.47;5051753;28;20033;-37
2021/11/05 09:19:09;;;;;;;2.22;1.70;;;;;;;15.60;nan;101025.69;5051585;28;20108;-37
2021/11/05 09:21:35;;;;;;;2.05;1.63;;;;;;;15.62;nan;101025.63;5051704;28;20025;-37
2021/11/05 09:24:04;;;;;;;2.47;1.60;;;;;;;15.62;nan;101025.63;5039786;28;20028;-37
2021/11/05 09:26:31;;;;;;;2.25;1.40;;;;;;;15.63;nan;101019.31;5047197;28;20020;-37
2021/11/05 09:28:57;;;;;;;1.95;1.60;;;;;;;15.66;nan;101024.53;5051769;28;20032;-37
2021/11/05 09:31:23;;;;;;;2.95;1.80;;;;;;;15.68;nan;101017.25;5051735;28;20120;-37
2021/11/05 09:33:49;;;;;;;2.05;1.83;;;;;;;15.68;nan;101023.50;5039734;28;20464;-37
2021/11/05 09:36:16;;;;;;;3.17;2.00;;;;;;;15.69;nan;101016.31;5046970;28;20094;-37
2021/11/05 09:38:42;;;;;;;;;;;;;;;15.70;nan;101010.88;5051461;28;20088;-37
2021/11/05 09:41:07;;;;;;;2.78;1.50;;;;;;;15.72;nan;101016.13;5051512;28;19955;-37
2021/11/05 09:43:33;;;;;;;2.97;1.48;;;;;;;15.74;nan;101011.56;5044272;28;20051;-37
2021/11/05 09:45:58;;;;;;;3.28;1.75;;;;;;;15.73;nan;101004.47;5042045;28;20366;-37
2021/11/05 09:48:25;;;;;;;2.30;1.80;;;;;;;15.77;nan;101008.72;5051252;28;20045;-37
2021/11/05 09:50:50;;;;;;;3.42;1.45;;;;;;;15.79;nan;101017.50;5051470;28;20541;-37
2021/11/05 09:53:16;;;;;;;1.88;1.45;;;;;;;15.78;nan;101008.59;5044826;28;20119;-37
2021/11/05 09:55:45;;;;;;;2.42;1.50;;;;;;;15.81;nan;101002.22;5043077;28;20021;-37
2021/11/05 09:58:11;;;;;;;2.65;1.38;;;;;;;15.80;nan;101000.50;5051162;28;20028;-37
2021/11/05 10:00:38;;;;;;;2.13;1.40;;;;;;;15.82;nan;101003.94;5051457;28;20100;-37
2021/11/05 10:03:03;;;;;;;2.17;1.60;;;;;;;15.82;nan;101012.84;5044090;28;20280;-37
2021/11/05 10:05:29;;;;;;;5.13;1.60;;;;;;;15.83;nan;101000.28;5023705;28;20029;-37
2021/11/05 10:07:59;;;;;;;1.55;1.40;;;;;;;15.83;nan;100998.50;5051169;28;20028;-37
2021/11/05 10:10:27;;;;;;;2.30;1.48;;;;;;;15.85;nan;101009.13;5051128;28;20029;-37
2021/11/05 10:13:02;;;;;;;3.20;1.85;;;;;;;15.85;nan;101003.78;5049465;28;20032;-37
2021/11/05 10:15:35;;;;;;;2.92;1.80;;;;;;;15.86;nan;101010.84;5041263;28;20036;-37
2021/11/05 10:18:30;;;;;;;2.08;1.50;;;;;;;15.87;nan;101006.34;5034259;28;20107;-37
2021/11/05 10:21:15;;;;;;;3.55;1.77;;;;;;;15.88;nan;101005.41;5042537;28;20497;-37
2021/11/05 10:23:43;;;;;;;2.22;1.48;;;;;;;15.87;nan;101001.84;5039310;28;20041;-38
2021/11/05 10:26:28;;;;;;;2.67;1.60;;;;;;;15.89;nan;100999.09;5028763;28;20032;-37
2021/11/05 10:28:54;;;;;;;2.50;1.50;;;;;;;15.89;nan;101007.13;5033035;28;20025;-37
2021/11/05 10:31:24;;;;;;;2.25;1.50;;;;;;;15.89;nan;101005.31;5051185;28;20021;-38
2021/11/05 10:33:51;;;;;;;2.70;1.33;;;;;;;15.91;nan;101002.53;5038558;28;20485;-37
2021/11/05 10:36:18;;;;;;;;;;;;;;;15.90;nan;100999.00;5047282;28;20090;-37
2021/11/05 10:38:52;;;;;;;1.92;1.33;;;;;;;15.91;nan;100995.38;5050882;28;20332;-37
2021/11/05 10:41:20;;;;;;;2.47;1.77;;;;;;;15.93;nan;100992.59;5050970;28;20020;-37
2021/11/05 10:43:49;;;;;;;2.60;1.42;;;;;;;15.93;nan;100992.59;5020533;28;20083;-37
2021/11/05 10:46:34;;;;;;;1.75;1.45;;;;;;;15.93;nan;100989.91;5027947;28;20460;-38
2021/11/05 10:49:19;;;;;;;1.63;1.52;;;;;;;15.92;nan;100981.03;5033293;28;20051;-37
2021/11/05 10:51:45;;;;;;;2.85;1.52;;;;;;;15.94;nan;100989.81;5054894;28;20029;-37
2021/11/05 10:54:11;;;;;;;1.80;1.50;;;;;;;15.94;nan;100981.78;5037532;28;20031;-37
2021/11/05 10:56:39;;;;;;;2.25;1.55;;;;;;;15.95;nan;100974.59;5049563;28;20067;-38
2021/11/05 10:59:10;;;;;;;1.85;1.48;;;;;;;15.95;nan;100979.97;5035167;28;20029;-37
2021/11/05 11:01:39;;;;;;;3.25;1.40;;;;;;;15.95;nan;100978.16;5054387;28;20396;-37
2021/11/05 11:04:10;;;;;;;2.03;1.27;;;;;;;15.97;nan;100986.09;5041968;28;20025;-37
2021/11/05 11:06:39;;;;;;;1.70;1.58;;;;;;;15.97;nan;100973.56;5031490;28;20020;-37
2021/11/05 11:09:16;;;;;;;2.67;1.52;;;;;;;15.97;nan;100973.56;5054003;28;20100;-37
2021/11/05 11:11:43;;;;;;;1.75;1.50;;;;;;;15.98;nan;100972.59;5054550;28;20095;-37
2021/11/05 11:14:17;;;;;;;1.42;1.33;;;;;;;15.99;nan;100973.50;5024032;28;20052;-37
2021/11/05 11:16:46;;;;;;;2.33;1.42;;;;;;;16.00;nan;100973.38;5049116;28;20392;-37
2021/11/05 11:19:17;;;;;;;3.42;1.30;;;;;;;15.99;nan;100969.00;5053698;28;20021;-37
2021/11/05 11:21:46;;;;;;;1.85;1.30;;;;;;;16.00;nan;100962.66;5054221;28;20027;-37
2021/11/05 11:24:15;;;;;;;1.60;1.40;;;;;;;16.00;nan;100970.72;5049353;28;20036;-38
2021/11/05 11:26:42;;;;;;;2.40;1.42;;;;;;;16.01;nan;100972.44;5051595;28;20107;-37
2021/11/05 11:29:09;;;;;;;1.70;1.40;;;;;;;16.01;nan;100956.34;5053800;28;20025;-37
2021/11/05 11:31:36;;;;;;;2.35;1.20;;;;;;;16.03;nan;100956.28;5053811;28;20469;-37
2021/11/05 11:34:03;;;;;;;;;;;;;;;16.03;nan;100965.16;5041375;28;20056;-37
2021/11/05 11:36:31;;;;;;;;;;;;;;;16.03;nan;100962.50;5049279;28;19908;-37
2021/11/05 11:38:57;;;;;;;1.52;1.05;;;;;;;16.04;nan;100953.47;5053549;28;19912;-37
2021/11/05 11:41:23;;;;;;;1.58;1.17;;;;;;;16.05;nan;100960.56;5053893;28;20501;-37